sensor_id;sensor_type;location;lat;lon;timestamp;temperature;humidity
5027;DHT22;2532;52.480;13.354;2024-02-14T00:00:07;6.10;98.60
5027;DHT22;2532;52.480;13.354;2024-02-14T00:02:38;6.10;98.60
5027;DHT22;2532;52.480;13.354;2024-02-14T00:05:05;6.10;98.60
5027;DHT22;2532;52.480;13.354;2024-02-14T00:07:32;6.10;98.60
5027;DHT22;2532;52.480;13.354;2024-02-14T00:10:01;6.10;98.50
5027;DHT22;2532;52.480;13.354;2024-02-14T00:12:28;6.10;98.50
5027;DHT22;2532;52.480;13.354;2024-02-14T00:14:55;6.10;98.50
5027;DHT22;2532;52.480;13.354;2024-02-14T00:17:23;6.10;98.50
5027;DHT22;2532;52.480;13.354;2024-02-14T00:19:51;6.20;98.50
5027;DHT22;2532;52.480;13.354;2024-02-14T00:22:18;6.10;98.30
5027;DHT22;2532;52.480;13.354;2024-02-14T00:24:45;6.20;98.30
5027;DHT22;2532;52.480;13.354;2024-02-14T00:27:13;6.10;98.30
5027;DHT22;2532;52.480;13.354;2024-02-14T00:29:41;6.10;98.30
5027;DHT22;2532;52.480;13.354;2024-02-14T00:32:10;6.10;98.30
5027;DHT22;2532;52.480;13.354;2024-02-14T00:34:37;6.10;98.30
5027;DHT22;2532;52.480;13.354;2024-02-14T00:37:04;6.10;98.40
5027;DHT22;2532;52.480;13.354;2024-02-14T00:39:31;6.10;98.40
5027;DHT22;2532;52.480;13.354;2024-02-14T00:41:58;6.10;98.40
5027;DHT22;2532;52.480;13.354;2024-02-14T00:44:26;6.10;98.40
5027;DHT22;2532;52.480;13.354;2024-02-14T00:46:56;6.10;98.40
5027;DHT22;2532;52.480;13.354;2024-02-14T00:49:24;6.10;98.40
5027;DHT22;2532;52.480;13.354;2024-02-14T00:51:51;6.10;98.60
5027;DHT22;2532;52.480;13.354;2024-02-14T00:54:18;6.10;98.30
5027;DHT22;2532;52.480;13.354;2024-02-14T00:56:45;6.10;98.40
5027;DHT22;2532;52.480;13.354;2024-02-14T00:59:12;6.00;98.40
5027;DHT22;2532;52.480;13.354;2024-02-14T01:01:41;6.00;98.40
5027;DHT22;2532;52.480;13.354;2024-02-14T01:04:08;6.00;98.50
5027;DHT22;2532;52.480;13.354;2024-02-14T01:06:35;6.00;98.50
5027;DHT22;2532;52.480;13.354;2024-02-14T01:09:02;6.00;98.50
5027;DHT22;2532;52.480;13.354;2024-02-14T01:11:29;6.00;98.60
5027;DHT22;2532;52.480;13.354;2024-02-14T01:13:56;5.90;98.60
5027;DHT22;2532;52.480;13.354;2024-02-14T01:16:24;5.90;98.60
5027;DHT22;2532;52.480;13.354;2024-02-14T01:18:53;5.90;98.70
5027;DHT22;2532;52.480;13.354;2024-02-14T01:21:20;5.90;98.70
5027;DHT22;2532;52.480;13.354;2024-02-14T01:23:46;5.90;98.70
5027;DHT22;2532;52.480;13.354;2024-02-14T01:26:13;5.80;98.80
5027;DHT22;2532;52.480;13.354;2024-02-14T01:28:41;5.80;98.80
5027;DHT22;2532;52.480;13.354;2024-02-14T01:31:09;5.80;98.80
5027;DHT22;2532;52.480;13.354;2024-02-14T01:33:38;5.80;98.80
5027;DHT22;2532;52.480;13.354;2024-02-14T01:36:07;5.80;98.90
5027;DHT22;2532;52.480;13.354;2024-02-14T01:38:34;5.80;98.90
5027;DHT22;2532;52.480;13.354;2024-02-14T01:41:01;5.80;98.90
5027;DHT22;2532;52.480;13.354;2024-02-14T01:43:29;5.80;99.00
5027;DHT22;2532;52.480;13.354;2024-02-14T01:46:04;5.80;99.00
5027;DHT22;2532;52.480;13.354;2024-02-14T01:48:31;5.80;99.00
5027;DHT22;2532;52.480;13.354;2024-02-14T01:50:59;5.80;99.00
5027;DHT22;2532;52.480;13.354;2024-02-14T01:53:28;5.80;99.00
5027;DHT22;2532;52.480;13.354;2024-02-14T01:55:56;5.80;99.00
5027;DHT22;2532;52.480;13.354;2024-02-14T01:58:24;5.80;99.00
5027;DHT22;2532;52.480;13.354;2024-02-14T02:00:51;5.80;99.10
5027;DHT22;2532;52.480;13.354;2024-02-14T02:03:22;5.80;99.00
5027;DHT22;2532;52.480;13.354;2024-02-14T02:05:49;5.80;99.00
5027;DHT22;2532;52.480;13.354;2024-02-14T02:08:16;5.80;99.00
5027;DHT22;2532;52.480;13.354;2024-02-14T02:10:44;5.80;99.00
5027;DHT22;2532;52.480;13.354;2024-02-14T02:13:11;5.80;99.00
5027;DHT22;2532;52.480;13.354;2024-02-14T02:15:41;5.80;99.00
5027;DHT22;2532;52.480;13.354;2024-02-14T02:18:10;5.80;99.10
5027;DHT22;2532;52.480;13.354;2024-02-14T02:20:37;5.80;99.10
5027;DHT22;2532;52.480;13.354;2024-02-14T02:23:05;5.80;99.10
5027;DHT22;2532;52.480;13.354;2024-02-14T02:25:35;5.80;99.10
5027;DHT22;2532;52.480;13.354;2024-02-14T02:28:02;5.70;99.10
5027;DHT22;2532;52.480;13.354;2024-02-14T02:30:29;5.80;99.20
5027;DHT22;2532;52.480;13.354;2024-02-14T02:32:56;5.70;99.10
5027;DHT22;2532;52.480;13.354;2024-02-14T02:35:24;5.70;99.20
5027;DHT22;2532;52.480;13.354;2024-02-14T02:37:51;5.70;99.20
5027;DHT22;2532;52.480;13.354;2024-02-14T02:40:20;5.70;99.20
5027;DHT22;2532;52.480;13.354;2024-02-14T02:42:48;5.70;99.20
5027;DHT22;2532;52.480;13.354;2024-02-14T02:45:16;5.70;99.20
5027;DHT22;2532;52.480;13.354;2024-02-14T02:47:43;5.70;99.50
5027;DHT22;2532;52.480;13.354;2024-02-14T02:50:10;5.70;99.20
5027;DHT22;2532;52.480;13.354;2024-02-14T02:52:37;5.70;99.20
5027;DHT22;2532;52.480;13.354;2024-02-14T02:55:05;5.70;99.20
5027;DHT22;2532;52.480;13.354;2024-02-14T02:57:33;5.70;99.20
5027;DHT22;2532;52.480;13.354;2024-02-14T03:00:03;5.70;99.20
5027;DHT22;2532;52.480;13.354;2024-02-14T03:02:31;5.70;99.20
5027;DHT22;2532;52.480;13.354;2024-02-14T03:04:58;5.80;99.30
5027;DHT22;2532;52.480;13.354;2024-02-14T03:07:25;5.80;99.30
5027;DHT22;2532;52.480;13.354;2024-02-14T03:09:52;5.80;99.30
5027;DHT22;2532;52.480;13.354;2024-02-14T03:12:19;5.70;99.20
5027;DHT22;2532;52.480;13.354;2024-02-14T03:14:49;5.80;99.20
5027;DHT22;2532;52.480;13.354;2024-02-14T03:17:16;5.80;99.20
5027;DHT22;2532;52.480;13.354;2024-02-14T03:19:43;5.80;99.20
5027;DHT22;2532;52.480;13.354;2024-02-14T03:22:11;5.80;99.20
5027;DHT22;2532;52.480;13.354;2024-02-14T03:24:38;5.80;99.20
5027;DHT22;2532;52.480;13.354;2024-02-14T03:27:05;5.80;99.20
5027;DHT22;2532;52.480;13.354;2024-02-14T03:29:32;5.80;99.20
5027;DHT22;2532;52.480;13.354;2024-02-14T03:32:02;5.80;99.10
5027;DHT22;2532;52.480;13.354;2024-02-14T03:34:30;5.80;99.10
5027;DHT22;2532;52.480;13.354;2024-02-14T03:36:59;5.80;99.10
5027;DHT22;2532;52.480;13.354;2024-02-14T03:39:27;5.80;99.20
5027;DHT22;2532;52.480;13.354;2024-02-14T03:41:54;5.80;99.10
5027;DHT22;2532;52.480;13.354;2024-02-14T03:44:22;5.80;99.10
5027;DHT22;2532;52.480;13.354;2024-02-14T03:46:49;5.80;99.20
5027;DHT22;2532;52.480;13.354;2024-02-14T03:49:18;5.90;99.20
5027;DHT22;2532;52.480;13.354;2024-02-14T03:51:45;5.90;99.20
5027;DHT22;2532;52.480;13.354;2024-02-14T03:54:12;5.90;99.10
5027;DHT22;2532;52.480;13.354;2024-02-14T03:56:39;5.90;99.00
5027;DHT22;2532;52.480;13.354;2024-02-14T03:59:06;5.90;98.90
5027;DHT22;2532;52.480;13.354;2024-02-14T04:01:36;5.90;99.00
5027;DHT22;2532;52.480;13.354;2024-02-14T04:04:04;5.90;99.10
5027;DHT22;2532;52.480;13.354;2024-02-14T04:06:32;5.90;99.10
5027;DHT22;2532;52.480;13.354;2024-02-14T04:09:00;6.00;99.10
5027;DHT22;2532;52.480;13.354;2024-02-14T04:11:27;6.00;99.00
5027;DHT22;2532;52.480;13.354;2024-02-14T04:13:54;6.00;99.00
5027;DHT22;2532;52.480;13.354;2024-02-14T04:16:21;6.00;99.00
5027;DHT22;2532;52.480;13.354;2024-02-14T04:18:48;6.00;99.00
5027;DHT22;2532;52.480;13.354;2024-02-14T04:21:15;5.90;99.00
5027;DHT22;2532;52.480;13.354;2024-02-14T04:23:43;5.90;99.10
5027;DHT22;2532;52.480;13.354;2024-02-14T04:26:12;5.90;99.20
5027;DHT22;2532;52.480;13.354;2024-02-14T04:28:44;5.90;99.20
5027;DHT22;2532;52.480;13.354;2024-02-14T04:31:11;5.90;99.30
5027;DHT22;2532;52.480;13.354;2024-02-14T04:33:38;5.90;99.20
5027;DHT22;2532;52.480;13.354;2024-02-14T04:36:06;5.90;99.20
5027;DHT22;2532;52.480;13.354;2024-02-14T04:38:32;5.90;99.30
5027;DHT22;2532;52.480;13.354;2024-02-14T04:41:03;6.00;99.20
5027;DHT22;2532;52.480;13.354;2024-02-14T04:43:30;6.00;99.20
5027;DHT22;2532;52.480;13.354;2024-02-14T04:45:57;6.00;99.20
5027;DHT22;2532;52.480;13.354;2024-02-14T04:48:23;6.00;99.10
5027;DHT22;2532;52.480;13.354;2024-02-14T04:50:51;6.00;99.10
5027;DHT22;2532;52.480;13.354;2024-02-14T04:53:18;6.10;99.10
5027;DHT22;2532;52.480;13.354;2024-02-14T04:55:45;6.10;99.20
5027;DHT22;2532;52.480;13.354;2024-02-14T04:58:14;6.00;99.20
5027;DHT22;2532;52.480;13.354;2024-02-14T05:00:41;6.10;99.30
5027;DHT22;2532;52.480;13.354;2024-02-14T05:03:08;6.10;99.50
5027;DHT22;2532;52.480;13.354;2024-02-14T05:05:35;6.20;99.50
5027;DHT22;2532;52.480;13.354;2024-02-14T05:08:02;6.20;99.20
5027;DHT22;2532;52.480;13.354;2024-02-14T05:10:30;6.20;99.20
5027;DHT22;2532;52.480;13.354;2024-02-14T05:12:57;6.20;99.10
5027;DHT22;2532;52.480;13.354;2024-02-14T05:15:25;6.20;99.20
5027;DHT22;2532;52.480;13.354;2024-02-14T05:17:52;6.20;99.20
5027;DHT22;2532;52.480;13.354;2024-02-14T05:20:19;6.20;99.30
5027;DHT22;2532;52.480;13.354;2024-02-14T05:22:46;6.20;99.50
5027;DHT22;2532;52.480;13.354;2024-02-14T05:25:13;6.20;99.20
5027;DHT22;2532;52.480;13.354;2024-02-14T05:27:40;6.30;99.20
5027;DHT22;2532;52.480;13.354;2024-02-14T05:30:07;6.30;99.30
5027;DHT22;2532;52.480;13.354;2024-02-14T05:32:36;6.30;99.30
5027;DHT22;2532;52.480;13.354;2024-02-14T05:35:03;6.30;99.30
5027;DHT22;2532;52.480;13.354;2024-02-14T05:37:31;6.30;99.20
5027;DHT22;2532;52.480;13.354;2024-02-14T05:39:58;6.40;99.10
5027;DHT22;2532;52.480;13.354;2024-02-14T05:42:25;6.40;99.10
5027;DHT22;2532;52.480;13.354;2024-02-14T05:44:52;6.40;99.10
5027;DHT22;2532;52.480;13.354;2024-02-14T05:47:19;6.40;99.20
5027;DHT22;2532;52.480;13.354;2024-02-14T05:49:47;6.40;99.20
5027;DHT22;2532;52.480;13.354;2024-02-14T05:52:14;6.40;99.20
5027;DHT22;2532;52.480;13.354;2024-02-14T05:54:41;6.50;99.20
5027;DHT22;2532;52.480;13.354;2024-02-14T05:57:09;6.40;99.10
5027;DHT22;2532;52.480;13.354;2024-02-14T05:59:36;6.50;99.20
5027;DHT22;2532;52.480;13.354;2024-02-14T06:02:03;6.50;99.10
5027;DHT22;2532;52.480;13.354;2024-02-14T06:04:31;6.50;99.10
5027;DHT22;2532;52.480;13.354;2024-02-14T06:06:59;6.50;99.00
5027;DHT22;2532;52.480;13.354;2024-02-14T06:09:26;6.50;99.00
5027;DHT22;2532;52.480;13.354;2024-02-14T06:11:53;6.50;99.00
5027;DHT22;2532;52.480;13.354;2024-02-14T06:14:20;6.50;99.00
5027;DHT22;2532;52.480;13.354;2024-02-14T06:16:47;6.50;99.00
5027;DHT22;2532;52.480;13.354;2024-02-14T06:19:14;6.50;99.10
5027;DHT22;2532;52.480;13.354;2024-02-14T06:21:41;6.50;99.10
5027;DHT22;2532;52.480;13.354;2024-02-14T06:24:09;6.50;99.00
5027;DHT22;2532;52.480;13.354;2024-02-14T06:26:38;6.60;99.00
5027;DHT22;2532;52.480;13.354;2024-02-14T06:29:06;6.60;99.00
5027;DHT22;2532;52.480;13.354;2024-02-14T06:31:32;6.60;99.00
5027;DHT22;2532;52.480;13.354;2024-02-14T06:33:59;6.60;99.00
5027;DHT22;2532;52.480;13.354;2024-02-14T06:36:27;6.60;99.00
5027;DHT22;2532;52.480;13.354;2024-02-14T06:38:54;6.60;99.00
5027;DHT22;2532;52.480;13.354;2024-02-14T06:41:22;6.60;99.20
5027;DHT22;2532;52.480;13.354;2024-02-14T06:43:49;6.60;99.40
5027;DHT22;2532;52.480;13.354;2024-02-14T06:46:16;6.70;99.60
5027;DHT22;2532;52.480;13.354;2024-02-14T06:48:43;6.70;99.30
5027;DHT22;2532;52.480;13.354;2024-02-14T06:51:10;6.70;99.10
5027;DHT22;2532;52.480;13.354;2024-02-14T06:53:37;6.70;99.00
5027;DHT22;2532;52.480;13.354;2024-02-14T06:56:05;6.70;98.90
5027;DHT22;2532;52.480;13.354;2024-02-14T06:58:33;6.70;99.20
5027;DHT22;2532;52.480;13.354;2024-02-14T07:01:00;6.70;98.90
5027;DHT22;2532;52.480;13.354;2024-02-14T07:03:28;6.80;99.00
5027;DHT22;2532;52.480;13.354;2024-02-14T07:05:55;6.80;99.00
5027;DHT22;2532;52.480;13.354;2024-02-14T07:08:22;6.80;99.00
5027;DHT22;2532;52.480;13.354;2024-02-14T07:10:51;6.80;99.00
5027;DHT22;2532;52.480;13.354;2024-02-14T07:13:18;6.90;99.00
5027;DHT22;2532;52.480;13.354;2024-02-14T07:15:46;6.90;99.00
5027;DHT22;2532;52.480;13.354;2024-02-14T07:18:13;6.90;98.90
5027;DHT22;2532;52.480;13.354;2024-02-14T07:20:40;6.90;98.90
5027;DHT22;2532;52.480;13.354;2024-02-14T07:23:07;7.00;98.90
5027;DHT22;2532;52.480;13.354;2024-02-14T07:25:34;7.00;98.90
5027;DHT22;2532;52.480;13.354;2024-02-14T07:28:01;7.00;98.90
5027;DHT22;2532;52.480;13.354;2024-02-14T07:30:28;7.00;98.90
5027;DHT22;2532;52.480;13.354;2024-02-14T07:32:56;7.00;99.00
5027;DHT22;2532;52.480;13.354;2024-02-14T07:35:23;7.00;99.00
5027;DHT22;2532;52.480;13.354;2024-02-14T07:37:51;7.10;99.00
5027;DHT22;2532;52.480;13.354;2024-02-14T07:40:18;7.10;98.90
5027;DHT22;2532;52.480;13.354;2024-02-14T07:42:45;7.10;98.80
5027;DHT22;2532;52.480;13.354;2024-02-14T07:45:13;7.20;98.90
5027;DHT22;2532;52.480;13.354;2024-02-14T07:47:40;7.20;98.90
5027;DHT22;2532;52.480;13.354;2024-02-14T07:50:08;7.20;98.80
5027;DHT22;2532;52.480;13.354;2024-02-14T07:52:36;7.30;98.90
5027;DHT22;2532;52.480;13.354;2024-02-14T07:55:04;7.30;98.90
5027;DHT22;2532;52.480;13.354;2024-02-14T07:57:31;7.30;98.90
5027;DHT22;2532;52.480;13.354;2024-02-14T07:59:58;7.40;98.80
5027;DHT22;2532;52.480;13.354;2024-02-14T08:02:25;7.40;98.80
5027;DHT22;2532;52.480;13.354;2024-02-14T08:04:53;7.50;98.80
5027;DHT22;2532;52.480;13.354;2024-02-14T08:07:21;7.50;98.80
5027;DHT22;2532;52.480;13.354;2024-02-14T08:09:48;7.50;98.90
5027;DHT22;2532;52.480;13.354;2024-02-14T08:12:15;7.50;98.80
5027;DHT22;2532;52.480;13.354;2024-02-14T08:14:42;7.60;98.80
5027;DHT22;2532;52.480;13.354;2024-02-14T08:17:09;7.60;98.90
5027;DHT22;2532;52.480;13.354;2024-02-14T08:19:36;7.60;98.90
5027;DHT22;2532;52.480;13.354;2024-02-14T08:22:03;7.70;98.90
5027;DHT22;2532;52.480;13.354;2024-02-14T08:24:33;7.70;99.00
5027;DHT22;2532;52.480;13.354;2024-02-14T08:27:00;7.80;99.10
5027;DHT22;2532;52.480;13.354;2024-02-14T08:29:27;7.80;99.00
5027;DHT22;2532;52.480;13.354;2024-02-14T08:31:54;7.90;99.10
5027;DHT22;2532;52.480;13.354;2024-02-14T08:34:21;7.90;99.30
5027;DHT22;2532;52.480;13.354;2024-02-14T08:36:48;7.90;99.40
5027;DHT22;2532;52.480;13.354;2024-02-14T08:39:15;8.00;99.40
5027;DHT22;2532;52.480;13.354;2024-02-14T08:41:44;7.90;99.50
5027;DHT22;2532;52.480;13.354;2024-02-14T08:44:12;8.00;99.60
5027;DHT22;2532;52.480;13.354;2024-02-14T08:46:39;8.00;99.70
5027;DHT22;2532;52.480;13.354;2024-02-14T08:49:10;8.00;99.70
5027;DHT22;2532;52.480;13.354;2024-02-14T08:51:37;8.10;99.90
5027;DHT22;2532;52.480;13.354;2024-02-14T08:54:04;8.10;99.90
5027;DHT22;2532;52.480;13.354;2024-02-14T08:56:31;8.10;99.90
5027;DHT22;2532;52.480;13.354;2024-02-14T08:59:00;8.10;99.90
5027;DHT22;2532;52.480;13.354;2024-02-14T09:01:28;8.20;99.90
5027;DHT22;2532;52.480;13.354;2024-02-14T09:03:55;8.20;99.90
5027;DHT22;2532;52.480;13.354;2024-02-14T09:06:22;8.30;99.90
5027;DHT22;2532;52.480;13.354;2024-02-14T09:08:49;8.30;99.90
5027;DHT22;2532;52.480;13.354;2024-02-14T09:11:17;8.30;99.90
5027;DHT22;2532;52.480;13.354;2024-02-14T09:13:44;8.30;99.90
5027;DHT22;2532;52.480;13.354;2024-02-14T09:16:14;8.40;99.90
5027;DHT22;2532;52.480;13.354;2024-02-14T09:18:42;8.40;99.90
5027;DHT22;2532;52.480;13.354;2024-02-14T09:21:11;8.40;99.90
5027;DHT22;2532;52.480;13.354;2024-02-14T09:23:38;8.40;99.90
5027;DHT22;2532;52.480;13.354;2024-02-14T09:26:05;8.40;99.90
5027;DHT22;2532;52.480;13.354;2024-02-14T09:28:32;8.40;99.90
5027;DHT22;2532;52.480;13.354;2024-02-14T09:31:00;8.50;99.90
5027;DHT22;2532;52.480;13.354;2024-02-14T09:33:31;8.50;99.90
5027;DHT22;2532;52.480;13.354;2024-02-14T09:35:58;8.50;99.90
5027;DHT22;2532;52.480;13.354;2024-02-14T09:38:24;8.50;99.90
5027;DHT22;2532;52.480;13.354;2024-02-14T09:40:53;8.60;99.90
5027;DHT22;2532;52.480;13.354;2024-02-14T09:43:27;8.60;99.90
5027;DHT22;2532;52.480;13.354;2024-02-14T09:45:55;8.60;99.90
5027;DHT22;2532;52.480;13.354;2024-02-14T09:48:22;8.60;99.90
5027;DHT22;2532;52.480;13.354;2024-02-14T09:50:52;8.60;99.90
5027;DHT22;2532;52.480;13.354;2024-02-14T09:53:21;8.60;99.90
5027;DHT22;2532;52.480;13.354;2024-02-14T09:55:50;8.60;99.90
5027;DHT22;2532;52.480;13.354;2024-02-14T09:58:18;8.60;99.90
5027;DHT22;2532;52.480;13.354;2024-02-14T10:00:45;8.60;99.90
5027;DHT22;2532;52.480;13.354;2024-02-14T10:03:12;8.60;99.90
5027;DHT22;2532;52.480;13.354;2024-02-14T10:05:39;8.60;99.90
5027;DHT22;2532;52.480;13.354;2024-02-14T10:08:07;8.60;99.90
5027;DHT22;2532;52.480;13.354;2024-02-14T10:10:37;8.60;99.90
5027;DHT22;2532;52.480;13.354;2024-02-14T10:13:04;8.60;99.90
5027;DHT22;2532;52.480;13.354;2024-02-14T10:15:32;8.60;99.90
5027;DHT22;2532;52.480;13.354;2024-02-14T10:17:59;8.60;99.90
5027;DHT22;2532;52.480;13.354;2024-02-14T10:20:26;8.60;99.90
5027;DHT22;2532;52.480;13.354;2024-02-14T10:23:01;8.70;99.90
5027;DHT22;2532;52.480;13.354;2024-02-14T10:25:30;8.70;99.90
5027;DHT22;2532;52.480;13.354;2024-02-14T10:28:03;8.70;99.90
5027;DHT22;2532;52.480;13.354;2024-02-14T10:30:34;8.80;99.90
5027;DHT22;2532;52.480;13.354;2024-02-14T10:33:04;8.80;99.90
5027;DHT22;2532;52.480;13.354;2024-02-14T10:35:32;8.80;99.90
5027;DHT22;2532;52.480;13.354;2024-02-14T10:38:01;8.80;99.90
5027;DHT22;2532;52.480;13.354;2024-02-14T10:40:32;8.80;99.90
5027;DHT22;2532;52.480;13.354;2024-02-14T10:42:59;8.80;99.90
5027;DHT22;2532;52.480;13.354;2024-02-14T10:45:27;8.80;99.90
5027;DHT22;2532;52.480;13.354;2024-02-14T10:47:56;8.80;99.90
5027;DHT22;2532;52.480;13.354;2024-02-14T10:50:28;8.90;99.90
5027;DHT22;2532;52.480;13.354;2024-02-14T10:53:00;8.90;99.90
5027;DHT22;2532;52.480;13.354;2024-02-14T10:55:33;8.90;99.90
5027;DHT22;2532;52.480;13.354;2024-02-14T10:58:00;8.90;99.90
5027;DHT22;2532;52.480;13.354;2024-02-14T11:00:28;8.90;99.90
5027;DHT22;2532;52.480;13.354;2024-02-14T11:02:55;9.00;99.90
5027;DHT22;2532;52.480;13.354;2024-02-14T11:05:22;9.10;99.90
5027;DHT22;2532;52.480;13.354;2024-02-14T11:07:51;9.10;99.90
5027;DHT22;2532;52.480;13.354;2024-02-14T11:10:20;9.30;99.90
5027;DHT22;2532;52.480;13.354;2024-02-14T11:12:49;9.30;99.90
5027;DHT22;2532;52.480;13.354;2024-02-14T11:15:19;9.40;99.90
5027;DHT22;2532;52.480;13.354;2024-02-14T11:17:47;9.50;99.90
5027;DHT22;2532;52.480;13.354;2024-02-14T11:20:18;9.50;99.90
5027;DHT22;2532;52.480;13.354;2024-02-14T11:23:02;9.60;99.90
5027;DHT22;2532;52.480;13.354;2024-02-14T11:25:31;9.60;99.90
5027;DHT22;2532;52.480;13.354;2024-02-14T11:28:02;9.70;99.90
5027;DHT22;2532;52.480;13.354;2024-02-14T11:30:39;9.70;99.90
5027;DHT22;2532;52.480;13.354;2024-02-14T11:33:12;9.70;99.90
5027;DHT22;2532;52.480;13.354;2024-02-14T11:35:40;9.70;99.90
5027;DHT22;2532;52.480;13.354;2024-02-14T11:38:08;9.70;99.90
5027;DHT22;2532;52.480;13.354;2024-02-14T11:40:36;9.70;99.90
5027;DHT22;2532;52.480;13.354;2024-02-14T11:43:10;9.60;99.90
5027;DHT22;2532;52.480;13.354;2024-02-14T11:45:38;9.60;99.90
5027;DHT22;2532;52.480;13.354;2024-02-14T11:48:08;9.70;99.90
5027;DHT22;2532;52.480;13.354;2024-02-14T11:50:35;9.70;99.90
5027;DHT22;2532;52.480;13.354;2024-02-14T11:53:02;9.60;99.90
5027;DHT22;2532;52.480;13.354;2024-02-14T11:55:31;9.70;99.90
5027;DHT22;2532;52.480;13.354;2024-02-14T11:58:03;9.70;99.90
5027;DHT22;2532;52.480;13.354;2024-02-14T12:00:31;9.70;99.90
5027;DHT22;2532;52.480;13.354;2024-02-14T12:02:59;9.70;99.90
5027;DHT22;2532;52.480;13.354;2024-02-14T12:05:26;9.80;99.90
5027;DHT22;2532;52.480;13.354;2024-02-14T12:07:54;9.80;99.90
5027;DHT22;2532;52.480;13.354;2024-02-14T12:10:21;9.80;99.90
5027;DHT22;2532;52.480;13.354;2024-02-14T12:12:48;9.80;99.90
5027;DHT22;2532;52.480;13.354;2024-02-14T12:15:16;9.80;99.90
5027;DHT22;2532;52.480;13.354;2024-02-14T12:17:47;9.80;99.90
5027;DHT22;2532;52.480;13.354;2024-02-14T12:20:15;9.80;99.90
5027;DHT22;2532;52.480;13.354;2024-02-14T12:22:42;9.90;99.90
5027;DHT22;2532;52.480;13.354;2024-02-14T12:25:09;9.90;99.90
5027;DHT22;2532;52.480;13.354;2024-02-14T12:27:37;10.00;99.90
5027;DHT22;2532;52.480;13.354;2024-02-14T12:30:05;10.00;99.90
5027;DHT22;2532;52.480;13.354;2024-02-14T12:32:33;10.00;99.90
5027;DHT22;2532;52.480;13.354;2024-02-14T12:35:02;10.00;99.90
5027;DHT22;2532;52.480;13.354;2024-02-14T12:37:29;10.10;99.90
5027;DHT22;2532;52.480;13.354;2024-02-14T12:39:56;10.10;99.90
5027;DHT22;2532;52.480;13.354;2024-02-14T12:42:22;10.10;99.90
5027;DHT22;2532;52.480;13.354;2024-02-14T12:44:53;10.20;99.90
5027;DHT22;2532;52.480;13.354;2024-02-14T12:47:21;10.10;99.90
5027;DHT22;2532;52.480;13.354;2024-02-14T12:49:48;10.10;99.90
5027;DHT22;2532;52.480;13.354;2024-02-14T12:52:17;10.20;99.90
5027;DHT22;2532;52.480;13.354;2024-02-14T12:54:44;10.20;99.90
5027;DHT22;2532;52.480;13.354;2024-02-14T12:57:11;10.20;99.90
5027;DHT22;2532;52.480;13.354;2024-02-14T12:59:38;10.20;99.90
5027;DHT22;2532;52.480;13.354;2024-02-14T13:02:05;10.10;99.90
5027;DHT22;2532;52.480;13.354;2024-02-14T13:04:33;10.20;99.90
5027;DHT22;2532;52.480;13.354;2024-02-14T13:07:00;10.20;99.90
5027;DHT22;2532;52.480;13.354;2024-02-14T13:09:29;10.10;99.90
5027;DHT22;2532;52.480;13.354;2024-02-14T13:11:56;10.10;99.90
5027;DHT22;2532;52.480;13.354;2024-02-14T13:14:23;10.20;99.90
5027;DHT22;2532;52.480;13.354;2024-02-14T13:16:51;10.30;99.90
5027;DHT22;2532;52.480;13.354;2024-02-14T13:19:18;10.30;99.90
5027;DHT22;2532;52.480;13.354;2024-02-14T13:21:45;10.30;99.90
5027;DHT22;2532;52.480;13.354;2024-02-14T13:24:13;10.30;99.90
5027;DHT22;2532;52.480;13.354;2024-02-14T13:26:42;10.40;99.90
5027;DHT22;2532;52.480;13.354;2024-02-14T13:29:09;10.40;99.90
5027;DHT22;2532;52.480;13.354;2024-02-14T13:31:36;10.40;99.90
5027;DHT22;2532;52.480;13.354;2024-02-14T13:34:04;10.40;99.90
5027;DHT22;2532;52.480;13.354;2024-02-14T13:36:31;10.40;99.90
5027;DHT22;2532;52.480;13.354;2024-02-14T13:38:58;10.40;99.90
5027;DHT22;2532;52.480;13.354;2024-02-14T13:41:26;10.40;99.90
5027;DHT22;2532;52.480;13.354;2024-02-14T13:43:55;10.50;99.90
5027;DHT22;2532;52.480;13.354;2024-02-14T13:46:21;10.50;99.90
5027;DHT22;2532;52.480;13.354;2024-02-14T13:48:51;10.50;99.90
5027;DHT22;2532;52.480;13.354;2024-02-14T13:51:18;10.50;99.90
5027;DHT22;2532;52.480;13.354;2024-02-14T13:53:46;10.50;99.90
5027;DHT22;2532;52.480;13.354;2024-02-14T13:56:12;10.60;99.90
5027;DHT22;2532;52.480;13.354;2024-02-14T13:58:41;10.60;99.90
5027;DHT22;2532;52.480;13.354;2024-02-14T14:01:11;10.60;99.90
5027;DHT22;2532;52.480;13.354;2024-02-14T14:03:38;10.60;99.90
5027;DHT22;2532;52.480;13.354;2024-02-14T14:06:06;10.60;99.90
5027;DHT22;2532;52.480;13.354;2024-02-14T14:08:34;10.60;99.90
5027;DHT22;2532;52.480;13.354;2024-02-14T14:11:02;10.70;99.90
5027;DHT22;2532;52.480;13.354;2024-02-14T14:13:29;10.70;99.90
5027;DHT22;2532;52.480;13.354;2024-02-14T14:15:59;10.70;99.90
5027;DHT22;2532;52.480;13.354;2024-02-14T14:18:28;10.70;99.90
5027;DHT22;2532;52.480;13.354;2024-02-14T14:20:55;10.70;99.90
5027;DHT22;2532;52.480;13.354;2024-02-14T14:23:25;10.70;99.90
5027;DHT22;2532;52.480;13.354;2024-02-14T14:25:52;10.80;99.90
5027;DHT22;2532;52.480;13.354;2024-02-14T14:28:19;10.80;99.90
5027;DHT22;2532;52.480;13.354;2024-02-14T14:30:50;10.80;99.90
5027;DHT22;2532;52.480;13.354;2024-02-14T14:33:18;10.80;99.90
5027;DHT22;2532;52.480;13.354;2024-02-14T14:35:47;10.80;99.90
5027;DHT22;2532;52.480;13.354;2024-02-14T14:38:19;10.90;99.90
5027;DHT22;2532;52.480;13.354;2024-02-14T14:40:46;10.90;99.90
5027;DHT22;2532;52.480;13.354;2024-02-14T14:43:13;10.90;99.90
5027;DHT22;2532;52.480;13.354;2024-02-14T14:45:41;10.90;99.90
5027;DHT22;2532;52.480;13.354;2024-02-14T14:48:08;10.90;99.90
5027;DHT22;2532;52.480;13.354;2024-02-14T14:50:35;11.00;99.90
5027;DHT22;2532;52.480;13.354;2024-02-14T14:53:04;11.00;99.90
5027;DHT22;2532;52.480;13.354;2024-02-14T14:55:49;11.00;99.90
5027;DHT22;2532;52.480;13.354;2024-02-14T14:58:17;11.10;99.90
5027;DHT22;2532;52.480;13.354;2024-02-14T15:00:44;11.10;99.90
5027;DHT22;2532;52.480;13.354;2024-02-14T15:03:11;11.10;99.90
5027;DHT22;2532;52.480;13.354;2024-02-14T15:05:38;11.20;99.90
5027;DHT22;2532;52.480;13.354;2024-02-14T15:08:07;11.20;99.90
5027;DHT22;2532;52.480;13.354;2024-02-14T15:10:34;11.20;99.90
5027;DHT22;2532;52.480;13.354;2024-02-14T15:13:04;11.20;99.90
5027;DHT22;2532;52.480;13.354;2024-02-14T15:15:31;11.30;99.90
5027;DHT22;2532;52.480;13.354;2024-02-14T15:17:58;11.30;99.90
5027;DHT22;2532;52.480;13.354;2024-02-14T15:20:25;11.40;99.90
5027;DHT22;2532;52.480;13.354;2024-02-14T15:22:52;11.40;99.90
5027;DHT22;2532;52.480;13.354;2024-02-14T15:25:23;11.40;99.90
5027;DHT22;2532;52.480;13.354;2024-02-14T15:27:51;11.40;99.90
5027;DHT22;2532;52.480;13.354;2024-02-14T15:30:21;11.40;99.90
5027;DHT22;2532;52.480;13.354;2024-02-14T15:33:05;11.50;99.90
5027;DHT22;2532;52.480;13.354;2024-02-14T15:35:56;11.50;99.90
5027;DHT22;2532;52.480;13.354;2024-02-14T15:38:24;11.50;99.90
5027;DHT22;2532;52.480;13.354;2024-02-14T15:40:54;11.50;99.90
5027;DHT22;2532;52.480;13.354;2024-02-14T15:43:23;11.50;99.90
5027;DHT22;2532;52.480;13.354;2024-02-14T15:45:51;11.50;99.90
5027;DHT22;2532;52.480;13.354;2024-02-14T15:48:18;11.50;99.90
5027;DHT22;2532;52.480;13.354;2024-02-14T15:50:46;11.60;99.90
5027;DHT22;2532;52.480;13.354;2024-02-14T15:53:13;11.60;99.90
5027;DHT22;2532;52.480;13.354;2024-02-14T15:55:41;11.60;99.90
5027;DHT22;2532;52.480;13.354;2024-02-14T15:58:10;11.60;99.90
5027;DHT22;2532;52.480;13.354;2024-02-14T16:00:37;11.60;99.90